Time,TemperatureF,DewpointF,PressureIn,WindDirection,WindDirectionDegrees,WindSpeedMPH,WindSpeedGustMPH,Humidity,HourlyPrecipIn,Conditions,Clouds,dailyrainin,SoftwareType,DateUTC
2013-01-04 00:04:00,28.6,19.5,30.19,SW,225,3.8,11.6,68,0.00,,,0.00,WUHU216HW,2013-01-04 08:04:00,
2013-01-04 00:09:00,28.8,19.3,30.19,South,180,6.0,10.1,67,0.00,,,0.00,WUHU216HW,2013-01-04 08:09:00,
2013-01-04 00:14:00,28.8,19.3,30.19,NNW,338,6.7,8.7,67,0.00,,,0.00,WUHU216HW,2013-01-04 08:14:00,
2013-01-04 00:19:00,28.4,18.9,30.19,SSW,203,3.6,6.7,67,0.00,,,0.00,WUHU216HW,2013-01-04 08:19:00,
2013-01-04 00:24:00,28.4,18.9,30.19,SW,225,5.4,6.7,67,0.00,,,0.00,WUHU216HW,2013-01-04 08:24:00,
2013-01-04 00:29:00,28.4,18.9,30.18,SW,225,3.4,10.1,67,0.00,,,0.00,WUHU216HW,2013-01-04 08:29:00,
2013-01-04 00:34:00,28.3,19.1,30.18,SW,225,8.1,10.1,68,0.00,,,0.00,WUHU216HW,2013-01-04 08:34:00,
2013-01-04 00:39:00,28.3,19.1,30.18,SSW,203,8.5,9.2,68,0.00,,,0.00,WUHU216HW,2013-01-04 08:39:00,
2013-01-04 00:44:00,28.1,18.9,30.18,South,180,3.4,8.5,68,0.00,,,0.00,WUHU216HW,2013-01-04 08:44:00,
2013-01-04 00:49:00,27.9,18.7,30.18,SSW,203,4.0,7.6,68,0.00,,,0.00,WUHU216HW,2013-01-04 08:49:00,
2013-01-04 00:54:00,27.9,18.7,30.19,SSW,203,2.9,9.6,68,0.00,,,0.00,WUHU216HW,2013-01-04 08:54:00,
2013-01-04 00:59:00,27.9,18.7,30.19,SW,225,12.1,12.1,68,0.00,,,0.00,WUHU216HW,2013-01-04 08:59:00,
2013-01-04 01:04:00,27.7,18.9,30.18,WSW,248,4.0,12.1,69,0.00,,,0.00,WUHU216HW,2013-01-04 09:04:00,
2013-01-04 01:09:00,27.9,19.1,30.19,SSW,203,5.4,9.2,69,0.00,,,0.00,WUHU216HW,2013-01-04 09:09:00,
2013-01-04 01:14:00,27.9,19.1,30.18,SW,225,3.8,10.7,69,0.00,,,0.00,WUHU216HW,2013-01-04 09:14:00,
2013-01-04 01:19:00,27.9,19.1,30.18,SW,225,4.3,10.7,69,0.00,,,0.00,WUHU216HW,2013-01-04 09:19:00,
2013-01-04 01:24:00,28.1,19.6,30.18,WSW,248,8.3,8.5,70,0.00,,,0.00,WUHU216HW,2013-01-04 09:24:00,
2013-01-04 01:30:00,28.1,19.6,30.18,South,180,2.7,8.5,70,0.00,,,0.00,WUHU216HW,2013-01-04 09:30:00,
2013-01-04 01:35:00,28.1,19.6,30.18,WSW,248,2.5,8.7,70,0.00,,,0.00,WUHU216HW,2013-01-04 09:35:00,
2013-01-04 01:40:00,28.3,19.8,30.18,WSW,248,5.4,8.7,70,0.00,,,0.00,WUHU216HW,2013-01-04 09:40:00,
2013-01-04 01:45:00,28.4,20.3,30.19,SW,225,3.8,8.5,71,0.00,,,0.00,WUHU216HW,2013-01-04 09:45:00,
2013-01-04 01:50:00,28.6,20.4,30.19,WSW,248,8.1,8.5,71,0.00,,,0.00,WUHU216HW,2013-01-04 09:50:00,
2013-01-04 01:55:00,28.8,20.6,30.19,SW,225,9.2,10.1,71,0.00,,,0.00,WUHU216HW,2013-01-04 09:55:00,
2013-01-04 02:00:00,29.0,20.8,30.18,SSE,158,2.5,10.1,71,0.00,,,0.00,WUHU216HW,2013-01-04 10:00:00,
2013-01-04 02:05:00,29.0,20.8,30.18,WNW,293,4.0,10.1,71,0.00,,,0.00,WUHU216HW,2013-01-04 10:05:00,
2013-01-04 02:10:00,29.0,20.8,30.18,SW,225,6.3,7.8,71,0.00,,,0.00,WUHU216HW,2013-01-04 10:10:00,
2013-01-04 02:15:00,29.2,21.0,30.18,SSW,203,5.4,7.4,71,0.00,,,0.00,WUHU216HW,2013-01-04 10:15:00,
2013-01-04 02:20:00,29.2,21.0,30.18,SW,225,5.4,9.8,71,0.00,,,0.00,WUHU216HW,2013-01-04 10:20:00,
2013-01-04 02:25:00,29.2,21.0,30.18,WSW,248,7.6,9.8,71,0.00,,,0.00,WUHU216HW,2013-01-04 10:25:00,
2013-01-04 02:30:00,29.2,21.0,30.18,WSW,248,4.3,11.4,71,0.00,,,0.00,WUHU216HW,2013-01-04 10:30:00,
2013-01-04 02:35:00,29.0,20.8,30.19,SSW,203,2.2,11.4,71,0.00,,,0.00,WUHU216HW,2013-01-04 10:35:00,
2013-01-04 02:40:00,28.8,20.6,30.19,SSW,203,4.0,8.5,71,0.00,,,0.00,WUHU216HW,2013-01-04 10:40:00,
2013-01-04 02:45:00,28.8,20.9,30.19,WSW,248,5.6,8.5,72,0.00,,,0.00,WUHU216HW,2013-01-04 10:45:00,
2013-01-04 02:50:00,28.6,20.8,30.18,North,0,0.7,6.7,72,0.00,,,0.00,WUHU216HW,2013-01-04 10:50:00,
2013-01-04 02:55:00,28.4,20.6,30.18,WSW,248,1.3,6.5,72,0.00,,,0.00,WUHU216HW,2013-01-04 10:55:00,
2013-01-04 03:00:00,28.4,20.9,30.18,South,180,1.8,4.0,73,0.00,,,0.00,WUHU216HW,2013-01-04 11:00:00,
2013-01-04 03:05:00,28.1,20.5,30.19,WSW,248,0.4,3.1,73,0.00,,,0.00,WUHU216HW,2013-01-04 11:05:00,
2013-01-04 03:10:00,27.9,20.3,30.19,South,180,0.4,4.0,73,0.00,,,0.00,WUHU216HW,2013-01-04 11:10:00,
2013-01-04 03:15:00,27.7,20.2,30.19,ESE,113,1.3,4.0,73,0.00,,,0.00,WUHU216HW,2013-01-04 11:15:00,
2013-01-04 03:20:00,27.5,20.0,30.19,ENE,68,0.4,3.6,73,0.00,,,0.00,WUHU216HW,2013-01-04 11:20:00,
2013-01-04 03:25:00,27.4,19.5,30.20,NW,315,0.2,3.6,72,0.00,,,0.00,WUHU216HW,2013-01-04 11:25:00,
2013-01-04 03:30:00,27.2,19.4,30.20,SSW,203,0.2,4.7,72,0.00,,,0.00,WUHU216HW,2013-01-04 11:30:00,
2013-01-04 03:36:00,27.0,19.2,30.20,SW,225,0.7,4.7,72,0.00,,,0.00,WUHU216HW,2013-01-04 11:36:00,
2013-01-04 03:41:00,26.8,19.3,30.20,SW,225,4.0,5.1,73,0.00,,,0.00,WUHU216HW,2013-01-04 11:41:00,
2013-01-04 03:46:00,26.6,19.1,30.20,SSW,203,4.3,5.1,73,0.00,,,0.00,WUHU216HW,2013-01-04 11:46:00,
2013-01-04 03:51:00,26.6,19.1,30.19,SSW,203,4.0,7.2,73,0.00,,,0.00,WUHU216HW,2013-01-04 11:51:00,
2013-01-04 03:56:00,26.5,18.9,30.20,SSW,203,1.1,7.2,73,0.00,,,0.00,WUHU216HW,2013-01-04 11:56:00,
2013-01-04 04:01:00,26.3,18.5,30.20,SSW,203,1.8,3.6,72,0.00,,,0.00,WUHU216HW,2013-01-04 12:01:00,
2013-01-04 04:06:00,26.3,18.5,30.20,SW,225,2.0,4.0,72,0.00,,,0.00,WUHU216HW,2013-01-04 12:06:00,
2013-01-04 04:11:00,26.1,18.3,30.20,West,270,1.3,4.3,72,0.00,,,0.00,WUHU216HW,2013-01-04 12:11:00,
2013-01-04 04:16:00,25.9,18.4,30.20,SW,225,2.2,4.5,73,0.00,,,0.00,WUHU216HW,2013-01-04 12:16:00,
2013-01-04 04:21:00,25.9,18.4,30.20,SSW,203,2.9,4.5,73,0.00,,,0.00,WUHU216HW,2013-01-04 12:21:00,
2013-01-04 04:26:00,25.9,18.4,30.20,NW,315,0.4,4.7,73,0.00,,,0.00,WUHU216HW,2013-01-04 12:26:00,
2013-01-04 04:31:00,25.7,18.5,30.20,SSW,203,3.4,4.7,74,0.00,,,0.00,WUHU216HW,2013-01-04 12:31:00,
2013-01-04 04:36:00,25.9,18.7,30.20,NNW,338,0.0,3.4,74,0.00,,,0.00,WUHU216HW,2013-01-04 12:36:00,
2013-01-04 04:41:00,25.9,18.7,30.20,SSE,158,1.1,3.4,74,0.00,,,0.00,WUHU216HW,2013-01-04 12:41:00,
2013-01-04 04:46:00,25.9,18.7,30.20,NE,45,0.4,2.2,74,0.00,,,0.00,WUHU216HW,2013-01-04 12:46:00,
2013-01-04 04:51:00,25.7,18.5,30.20,ESE,113,0.4,2.9,74,0.00,,,0.00,WUHU216HW,2013-01-04 12:51:00,
2013-01-04 04:56:00,25.7,18.5,30.20,SE,135,1.3,2.9,74,0.00,,,0.00,WUHU216HW,2013-01-04 12:56:00,
2013-01-04 05:01:00,25.7,18.5,30.19,NNW,338,1.8,1.8,74,0.00,,,0.00,WUHU216HW,2013-01-04 13:01:00,
2013-01-04 05:06:00,25.9,18.7,30.19,WNW,293,0.4,1.8,74,0.00,,,0.00,WUHU216HW,2013-01-04 13:06:00,
2013-01-04 05:11:00,25.9,18.7,30.19,South,180,0.7,2.2,74,0.00,,,0.00,WUHU216HW,2013-01-04 13:11:00,
2013-01-04 05:16:00,25.9,18.7,30.19,West,270,4.0,4.0,74,0.00,,,0.00,WUHU216HW,2013-01-04 13:16:00,
2013-01-04 05:21:00,26.1,18.9,30.19,South,180,1.1,4.0,74,0.00,,,0.00,WUHU216HW,2013-01-04 13:21:00,
2013-01-04 05:26:00,26.1,18.9,30.19,WSW,248,5.1,5.8,74,0.00,,,0.00,WUHU216HW,2013-01-04 13:26:00,
2013-01-04 05:31:00,26.1,18.9,30.19,WSW,248,2.9,6.0,74,0.00,,,0.00,WUHU216HW,2013-01-04 13:31:00,
2013-01-04 05:36:00,25.9,18.7,30.20,NNW,338,1.3,6.0,74,0.00,,,0.00,WUHU216HW,2013-01-04 13:36:00,
2013-01-04 05:41:00,25.7,18.3,30.20,WSW,248,4.3,4.3,73,0.00,,,0.00,WUHU216HW,2013-01-04 13:41:00,
2013-01-04 05:46:00,25.6,18.4,30.20,West,270,1.1,4.3,74,0.00,,,0.00,WUHU216HW,2013-01-04 13:46:00,
2013-01-04 05:51:00,25.4,18.2,30.20,West,270,3.4,5.8,74,0.00,,,0.00,WUHU216HW,2013-01-04 13:51:00,
2013-01-04 05:56:00,25.4,18.2,30.20,West,270,2.2,5.8,74,0.00,,,0.00,WUHU216HW,2013-01-04 13:56:00,
2013-01-04 06:01:00,25.6,18.7,30.20,WSW,248,4.0,6.0,75,0.00,,,0.00,WUHU216HW,2013-01-04 14:01:00,
2013-01-04 06:06:00,25.6,19.0,30.20,WNW,293,2.5,6.0,76,0.00,,,0.00,WUHU216HW,2013-01-04 14:06:00,
2013-01-04 06:12:00,25.6,19.4,30.20,North,0,2.2,5.4,77,0.00,,,0.00,WUHU216HW,2013-01-04 14:12:00,
2013-01-04 06:17:00,25.9,19.6,30.20,West,270,0.2,5.1,77,0.00,,,0.00,WUHU216HW,2013-01-04 14:17:00,
2013-01-04 06:22:00,26.1,19.8,30.20,South,180,0.0,3.1,77,0.00,,,0.00,WUHU216HW,2013-01-04 14:22:00,
2013-01-04 06:27:00,26.1,19.8,30.20,SSW,203,0.7,5.1,77,0.00,,,0.00,WUHU216HW,2013-01-04 14:27:00,
2013-01-04 06:32:00,26.1,19.5,30.20,SW,225,1.1,5.1,76,0.00,,,0.00,WUHU216HW,2013-01-04 14:32:00,
2013-01-04 06:37:00,25.9,19.4,30.20,SSW,203,0.4,2.5,76,0.00,,,0.00,WUHU216HW,2013-01-04 14:37:00,
2013-01-04 06:42:00,25.7,19.2,30.20,SSE,158,0.9,1.1,76,0.00,,,0.00,WUHU216HW,2013-01-04 14:42:00,
2013-01-04 06:47:00,25.6,19.0,30.20,South,180,0.2,1.6,76,0.00,,,0.00,WUHU216HW,2013-01-04 14:47:00,
2013-01-04 06:52:00,25.6,19.4,30.20,East,90,0.4,1.6,77,0.00,,,0.00,WUHU216HW,2013-01-04 14:52:00,
2013-01-04 06:57:00,25.6,19.4,30.20,ESE,113,1.8,1.8,77,0.00,,,0.00,WUHU216HW,2013-01-04 14:57:00,
2013-01-04 07:02:00,25.4,19.2,30.20,South,180,0.7,2.5,77,0.00,,,0.00,WUHU216HW,2013-01-04 15:02:00,
2013-01-04 07:07:00,25.2,19.0,30.21,East,90,1.8,2.5,77,0.00,,,0.00,WUHU216HW,2013-01-04 15:07:00,
2013-01-04 07:12:00,25.0,18.5,30.21,ESE,113,0.7,2.5,76,0.00,,,0.00,WUHU216HW,2013-01-04 15:12:00,
2013-01-04 07:17:00,24.7,18.2,30.21,ENE,68,0.9,2.5,76,0.00,,,0.00,WUHU216HW,2013-01-04 15:17:00,
2013-01-04 07:22:00,24.5,18.0,30.21,ENE,68,0.9,2.5,76,0.00,,,0.00,WUHU216HW,2013-01-04 15:22:00,
2013-01-04 07:27:00,24.1,17.7,30.20,ESE,113,1.3,1.3,76,0.00,,,0.00,WUHU216HW,2013-01-04 15:27:00,
2013-01-04 07:32:00,23.8,17.0,30.20,East,90,1.1,1.6,75,0.00,,,0.00,WUHU216HW,2013-01-04 15:32:00,
2013-01-04 07:37:00,23.4,16.3,30.21,ENE,68,0.4,4.0,74,0.00,,,0.00,WUHU216HW,2013-01-04 15:37:00,
2013-01-04 07:42:00,23.0,16.3,30.21,SE,135,1.1,4.0,75,0.00,,,0.00,WUHU216HW,2013-01-04 15:42:00,
2013-01-04 07:47:00,22.7,15.9,30.21,SSE,158,1.1,2.2,75,0.00,,,0.00,WUHU216HW,2013-01-04 15:47:00,
2013-01-04 07:52:00,22.7,15.9,30.21,West,270,1.3,2.2,75,0.00,,,0.00,WUHU216HW,2013-01-04 15:52:00,
2013-01-04 07:57:00,22.5,15.8,30.21,WSW,248,1.3,2.7,75,0.00,,,0.00,WUHU216HW,2013-01-04 15:57:00,
2013-01-04 08:02:00,22.5,15.8,30.21,SSW,203,0.7,2.7,75,0.00,,,0.00,WUHU216HW,2013-01-04 16:02:00,
2013-01-04 08:07:00,22.3,15.6,30.21,South,180,2.9,2.9,75,0.00,,,0.00,WUHU216HW,2013-01-04 16:07:00,
2013-01-04 08:12:00,22.5,16.0,30.21,South,180,2.5,2.9,76,0.00,,,0.00,WUHU216HW,2013-01-04 16:12:00,
2013-01-04 08:18:00,22.5,16.0,30.21,NW,315,1.1,2.9,76,0.00,,,0.00,WUHU216HW,2013-01-04 16:18:00,
2013-01-04 08:23:00,22.7,16.2,30.21,NE,45,0.4,1.3,76,0.00,,,0.00,WUHU216HW,2013-01-04 16:23:00,
2013-01-04 08:28:00,22.9,16.4,30.22,ESE,113,0.2,1.8,76,0.00,,,0.00,WUHU216HW,2013-01-04 16:28:00,
2013-01-04 08:33:00,23.0,16.6,30.22,SE,135,1.1,1.8,76,0.00,,,0.00,WUHU216HW,2013-01-04 16:33:00,
2013-01-04 08:38:00,23.2,16.7,30.22,East,90,1.3,2.2,76,0.00,,,0.00,WUHU216HW,2013-01-04 16:38:00,
2013-01-04 08:43:00,23.4,16.9,30.22,North,0,1.1,2.2,76,0.00,,,0.00,WUHU216HW,2013-01-04 16:43:00,
2013-01-04 08:48:00,23.6,17.1,30.23,NE,45,0.4,2.0,76,0.00,,,0.00,WUHU216HW,2013-01-04 16:48:00,
2013-01-04 08:53:00,23.8,17.3,30.23,SE,135,0.2,2.5,76,0.00,,,0.00,WUHU216HW,2013-01-04 16:53:00,
2013-01-04 08:58:00,24.1,17.7,30.23,ESE,113,0.7,2.5,76,0.00,,,0.00,WUHU216HW,2013-01-04 16:58:00,
2013-01-04 09:03:00,24.3,17.5,30.23,ENE,68,1.8,2.7,75,0.00,,,0.00,WUHU216HW,2013-01-04 17:03:00,
2013-01-04 09:08:00,24.7,17.8,30.23,South,180,2.5,2.9,75,0.00,,,0.00,WUHU216HW,2013-01-04 17:08:00,
2013-01-04 09:13:00,24.8,18.0,30.24,SSE,158,0.4,2.9,75,0.00,,,0.00,WUHU216HW,2013-01-04 17:13:00,
2013-01-04 09:18:00,25.2,18.4,30.24,SE,135,2.5,3.6,75,0.00,,,0.00,WUHU216HW,2013-01-04 17:18:00,
2013-01-04 09:23:00,25.6,18.7,30.25,SSE,158,0.9,3.6,75,0.00,,,0.00,WUHU216HW,2013-01-04 17:23:00,
2013-01-04 09:28:00,25.9,19.0,30.25,SSE,158,0.4,3.8,75,0.00,,,0.00,WUHU216HW,2013-01-04 17:28:00,
2013-01-04 09:33:00,26.3,19.4,30.25,SSW,203,1.1,3.8,75,0.00,,,0.00,WUHU216HW,2013-01-04 17:33:00,
2013-01-04 09:38:00,26.6,19.7,30.25,ESE,113,2.0,2.2,75,0.00,,,0.00,WUHU216HW,2013-01-04 17:38:00,
2013-01-04 09:43:00,27.0,19.8,30.24,SSW,203,1.8,2.9,74,0.00,,,0.00,WUHU216HW,2013-01-04 17:43:00,
2013-01-04 09:48:00,27.2,20.0,30.24,South,180,2.2,4.3,74,0.00,,,0.00,WUHU216HW,2013-01-04 17:48:00,
2013-01-04 09:53:00,27.4,19.8,30.24,SW,225,6.0,6.0,73,0.00,,,0.00,WUHU216HW,2013-01-04 17:53:00,
2013-01-04 09:58:00,27.7,20.5,30.24,SW,225,6.5,6.5,74,0.00,,,0.00,WUHU216HW,2013-01-04 17:58:00,
2013-01-04 10:03:00,28.1,20.9,30.24,SSW,203,4.7,9.2,74,0.00,,,0.00,WUHU216HW,2013-01-04 18:03:00,
2013-01-04 10:08:00,28.4,21.3,30.25,SW,225,2.7,9.2,74,0.00,,,0.00,WUHU216HW,2013-01-04 18:08:00,
2013-01-04 10:13:00,28.8,21.3,30.25,WSW,248,3.4,5.8,73,0.00,,,0.00,WUHU216HW,2013-01-04 18:13:00,
2013-01-04 10:18:00,29.0,21.4,30.25,SSW,203,2.0,5.8,73,0.00,,,0.00,WUHU216HW,2013-01-04 18:18:00,
2013-01-04 10:24:00,29.3,21.8,30.25,SSE,158,0.7,5.4,73,0.00,,,0.00,WUHU216HW,2013-01-04 18:24:00,
2013-01-04 10:29:00,29.5,21.9,30.24,South,180,3.4,5.4,73,0.00,,,0.00,WUHU216HW,2013-01-04 18:29:00,
2013-01-04 10:34:00,29.9,22.2,30.24,SW,225,1.6,5.4,73,0.00,,,0.00,WUHU216HW,2013-01-04 18:34:00,
2013-01-04 10:39:00,30.2,22.6,30.23,SE,135,5.4,5.4,73,0.00,,,0.00,WUHU216HW,2013-01-04 18:39:00,
2013-01-04 10:44:00,30.8,23.1,30.23,WSW,248,2.7,5.4,73,0.00,,,0.00,WUHU216HW,2013-01-04 18:44:00,
2013-01-04 10:49:00,31.3,23.7,30.23,SSW,203,2.7,7.6,73,0.00,,,0.00,WUHU216HW,2013-01-04 18:49:00,
2013-01-04 10:54:00,31.9,24.5,30.23,SW,225,1.8,7.6,74,0.00,,,0.00,WUHU216HW,2013-01-04 18:54:00,
2013-01-04 10:59:00,32.4,24.7,30.23,SSW,203,1.6,4.0,73,0.00,,,0.00,WUHU216HW,2013-01-04 18:59:00,
2013-01-04 11:04:00,32.8,25.0,30.23,SSW,203,2.7,4.0,73,0.00,,,0.00,WUHU216HW,2013-01-04 19:04:00,
2013-01-04 11:09:00,33.3,25.2,30.22,SE,135,4.0,4.0,72,0.00,,,0.00,WUHU216HW,2013-01-04 19:09:00,
2013-01-04 11:14:00,33.5,25.4,30.22,ESE,113,2.5,4.0,72,0.00,,,0.00,WUHU216HW,2013-01-04 19:14:00,
2013-01-04 11:19:00,33.7,25.2,30.22,SSE,158,3.4,5.1,71,0.00,,,0.00,WUHU216HW,2013-01-04 19:19:00,
2013-01-04 11:24:00,33.8,25.0,30.22,SE,135,2.0,5.1,70,0.00,,,0.00,WUHU216HW,2013-01-04 19:24:00,
2013-01-04 11:29:00,34.2,25.4,30.22,SSE,158,2.2,4.7,70,0.00,,,0.00,WUHU216HW,2013-01-04 19:29:00,
2013-01-04 11:34:00,34.4,25.9,30.21,SSE,158,3.1,4.7,71,0.00,,,0.00,WUHU216HW,2013-01-04 19:34:00,
2013-01-04 11:39:00,34.6,26.1,30.21,SSW,203,4.7,4.7,71,0.00,,,0.00,WUHU216HW,2013-01-04 19:39:00,
2013-01-04 11:44:00,34.9,26.5,30.21,South,180,2.5,4.7,71,0.00,,,0.00,WUHU216HW,2013-01-04 19:44:00,
2013-01-04 11:49:00,35.3,26.8,30.20,South,180,2.7,4.0,71,0.00,,,0.00,WUHU216HW,2013-01-04 19:49:00,
2013-01-04 11:54:00,35.8,27.4,30.20,SSW,203,2.5,3.6,71,0.00,,,0.00,WUHU216HW,2013-01-04 19:54:00,
2013-01-04 11:59:00,36.4,27.5,30.20,SSE,158,2.2,4.7,70,0.00,,,0.00,WUHU216HW,2013-01-04 19:59:00,
2013-01-04 12:04:00,36.7,27.9,30.20,SW,225,0.4,4.7,70,0.00,,,0.00,WUHU216HW,2013-01-04 20:04:00,
2013-01-04 12:09:00,37.1,27.9,30.20,South,180,5.4,5.4,69,0.00,,,0.00,WUHU216HW,2013-01-04 20:09:00,
2013-01-04 12:14:00,37.4,28.3,30.20,WSW,248,4.7,5.4,69,0.00,,,0.00,WUHU216HW,2013-01-04 20:14:00,
2013-01-04 12:19:00,37.8,28.2,30.20,WSW,248,2.5,4.7,68,0.00,,,0.00,WUHU216HW,2013-01-04 20:19:00,
2013-01-04 12:24:00,38.0,28.4,30.19,SSW,203,3.8,4.7,68,0.00,,,0.00,WUHU216HW,2013-01-04 20:24:00,
2013-01-04 12:29:00,38.2,28.2,30.19,South,180,1.1,5.4,67,0.00,,,0.00,WUHU216HW,2013-01-04 20:29:00,
2013-01-04 12:34:00,38.3,28.3,30.19,SE,135,2.9,5.4,67,0.00,,,0.00,WUHU216HW,2013-01-04 20:34:00,
2013-01-04 12:40:00,38.5,28.4,30.18,SSE,158,4.0,5.6,67,0.00,,,0.00,WUHU216HW,2013-01-04 20:40:00,
2013-01-04 12:45:00,38.7,28.3,30.18,SSE,158,3.8,5.6,66,0.00,,,0.00,WUHU216HW,2013-01-04 20:45:00,
2013-01-04 12:50:00,38.9,28.0,30.18,SSE,158,2.7,5.4,65,0.00,,,0.00,WUHU216HW,2013-01-04 20:50:00,
2013-01-04 12:55:00,39.2,28.7,30.17,SE,135,4.9,5.4,66,0.00,,,0.00,WUHU216HW,2013-01-04 20:55:00,
2013-01-04 13:00:00,39.2,28.4,30.17,SSE,158,3.1,5.4,65,0.00,,,0.00,WUHU216HW,2013-01-04 21:00:00,
2013-01-04 13:05:00,39.4,28.9,30.17,SSW,203,2.5,7.2,66,0.00,,,0.00,WUHU216HW,2013-01-04 21:05:00,
2013-01-04 13:10:00,39.6,28.7,30.17,SSE,158,1.6,7.2,65,0.00,,,0.00,WUHU216HW,2013-01-04 21:10:00,
2013-01-04 13:15:00,39.6,28.7,30.17,SSW,203,4.0,5.4,65,0.00,,,0.00,WUHU216HW,2013-01-04 21:15:00,
2013-01-04 13:20:00,40.0,28.7,30.17,South,180,5.4,5.4,64,0.00,,,0.00,WUHU216HW,2013-01-04 21:20:00,
2013-01-04 13:25:00,40.1,29.3,30.17,SSW,203,3.1,5.4,65,0.00,,,0.00,WUHU216HW,2013-01-04 21:25:00,
2013-01-04 13:30:00,40.3,29.1,30.17,South,180,3.1,6.0,64,0.00,,,0.00,WUHU216HW,2013-01-04 21:30:00,
2013-01-04 13:35:00,40.5,29.6,30.16,SE,135,1.3,6.0,65,0.00,,,0.00,WUHU216HW,2013-01-04 21:35:00,
2013-01-04 13:40:00,40.7,29.8,30.16,SSW,203,3.8,4.7,65,0.00,,,0.00,WUHU216HW,2013-01-04 21:40:00,
2013-01-04 13:45:00,40.7,29.4,30.16,SSE,158,3.4,4.7,64,0.00,,,0.00,WUHU216HW,2013-01-04 21:45:00,
2013-01-04 13:50:00,40.7,29.1,30.16,SSW,203,3.1,5.6,63,0.00,,,0.00,WUHU216HW,2013-01-04 21:50:00,
2013-01-04 13:55:00,40.9,29.6,30.16,SSE,158,1.8,5.6,64,0.00,,,0.00,WUHU216HW,2013-01-04 21:55:00,
2013-01-04 14:00:00,41.0,29.8,30.16,SSE,158,1.6,3.8,64,0.00,,,0.00,WUHU216HW,2013-01-04 22:00:00,
2013-01-04 14:05:00,41.0,29.8,30.16,SSW,203,2.2,4.3,64,0.00,,,0.00,WUHU216HW,2013-01-04 22:05:00,
2013-01-04 14:10:00,41.0,29.4,30.16,SSE,158,3.6,6.5,63,0.00,,,0.00,WUHU216HW,2013-01-04 22:10:00,
2013-01-04 14:15:00,40.9,29.3,30.16,SSE,158,1.3,6.5,63,0.00,,,0.00,WUHU216HW,2013-01-04 22:15:00,
2013-01-04 14:20:00,40.7,29.1,30.16,SE,135,4.0,5.1,63,0.00,,,0.00,WUHU216HW,2013-01-04 22:20:00,
2013-01-04 14:25:00,40.1,27.7,30.16,SSE,158,2.7,5.1,61,0.00,,,0.00,WUHU216HW,2013-01-04 22:25:00,
2013-01-04 14:30:00,39.8,28.2,30.16,South,180,5.4,5.4,63,0.00,,,0.00,WUHU216HW,2013-01-04 22:30:00,
2013-01-04 14:35:00,39.6,27.5,30.16,SE,135,0.9,5.4,62,0.00,,,0.00,WUHU216HW,2013-01-04 22:35:00,
2013-01-04 14:40:00,39.4,27.0,30.16,South,180,1.1,4.0,61,0.00,,,0.00,WUHU216HW,2013-01-04 22:40:00,
2013-01-04 14:45:00,39.2,27.2,30.16,SE,135,3.1,3.4,62,0.00,,,0.00,WUHU216HW,2013-01-04 22:45:00,
2013-01-04 14:50:00,39.1,27.5,30.16,South,180,2.5,3.4,63,0.00,,,0.00,WUHU216HW,2013-01-04 22:50:00,
2013-01-04 14:56:00,38.9,27.3,30.16,SSE,158,4.0,4.0,63,0.00,,,0.00,WUHU216HW,2013-01-04 22:56:00,
2013-01-04 15:01:00,38.9,27.3,30.16,ESE,113,1.8,4.0,63,0.00,,,0.00,WUHU216HW,2013-01-04 23:01:00,
2013-01-04 15:06:00,38.5,26.2,30.16,South,180,1.1,3.6,61,0.00,,,0.00,WUHU216HW,2013-01-04 23:06:00,
2013-01-04 15:11:00,38.5,26.6,30.16,SSE,158,0.9,3.6,62,0.00,,,0.00,WUHU216HW,2013-01-04 23:11:00,
2013-01-04 15:16:00,38.3,26.8,30.16,SSW,203,1.1,2.5,63,0.00,,,0.00,WUHU216HW,2013-01-04 23:16:00,
2013-01-04 15:21:00,38.3,26.8,30.16,SW,225,2.5,2.9,63,0.00,,,0.00,WUHU216HW,2013-01-04 23:21:00,
2013-01-04 15:26:00,38.2,26.7,30.16,SE,135,3.1,3.1,63,0.00,,,0.00,WUHU216HW,2013-01-04 23:26:00,
2013-01-04 15:31:00,38.3,26.8,30.16,SSE,158,2.9,3.4,63,0.00,,,0.00,WUHU216HW,2013-01-04 23:31:00,
2013-01-04 15:36:00,38.3,26.8,30.16,ESE,113,1.3,3.8,63,0.00,,,0.00,WUHU216HW,2013-01-04 23:36:00,
2013-01-04 15:41:00,38.2,26.7,30.16,SSE,158,2.5,3.8,63,0.00,,,0.00,WUHU216HW,2013-01-04 23:41:00,
2013-01-04 15:46:00,38.0,26.5,30.16,ESE,113,2.5,3.6,63,0.00,,,0.00,WUHU216HW,2013-01-04 23:46:00,
2013-01-04 15:51:00,37.8,26.3,30.16,SSE,158,4.7,4.7,63,0.00,,,0.00,WUHU216HW,2013-01-04 23:51:00,
2013-01-04 15:56:00,37.4,25.6,30.16,SE,135,1.1,4.7,62,0.00,,,0.00,WUHU216HW,2013-01-04 23:56:00,
2013-01-04 16:01:00,37.1,25.3,30.16,SE,135,1.6,3.6,62,0.00,,,0.00,WUHU216HW,2013-01-05 00:01:00,
2013-01-04 16:06:00,36.7,24.9,30.15,East,90,2.9,3.6,62,0.00,,,0.00,WUHU216HW,2013-01-05 00:06:00,
2013-01-04 16:11:00,36.4,24.6,30.15,ESE,113,5.1,5.1,62,0.00,,,0.00,WUHU216HW,2013-01-05 00:11:00,
2013-01-04 16:16:00,36.2,24.5,30.16,NE,45,1.1,5.1,62,0.00,,,0.00,WUHU216HW,2013-01-05 00:16:00,
2013-01-04 16:21:00,35.8,24.5,30.15,ESE,113,0.9,5.4,63,0.00,,,0.00,WUHU216HW,2013-01-05 00:21:00,
2013-01-04 16:26:00,35.5,24.1,30.15,SE,135,1.8,5.4,63,0.00,,,0.00,WUHU216HW,2013-01-05 00:26:00,
2013-01-04 16:31:00,35.1,23.8,30.16,ESE,113,0.4,3.8,63,0.00,,,0.00,WUHU216HW,2013-01-05 00:31:00,
2013-01-04 16:36:00,34.9,23.9,30.16,NE,45,2.5,4.9,64,0.00,,,0.00,WUHU216HW,2013-01-05 00:36:00,
2013-01-04 16:41:00,34.6,23.6,30.16,ENE,68,0.9,4.9,64,0.00,,,0.00,WUHU216HW,2013-01-05 00:41:00,
2013-01-04 16:46:00,34.2,23.2,30.16,ESE,113,0.7,2.0,64,0.00,,,0.00,WUHU216HW,2013-01-05 00:46:00,
2013-01-04 16:51:00,33.8,23.2,30.16,North,0,3.1,4.7,65,0.00,,,0.00,WUHU216HW,2013-01-05 00:51:00,
2013-01-04 16:56:00,33.7,23.0,30.16,SE,135,2.2,4.7,65,0.00,,,0.00,WUHU216HW,2013-01-05 00:56:00,
2013-01-04 17:01:00,33.5,22.9,30.16,ESE,113,1.3,2.5,65,0.00,,,0.00,WUHU216HW,2013-01-05 01:01:00,
2013-01-04 17:06:00,33.1,22.6,30.16,East,90,2.0,2.0,65,0.00,,,0.00,WUHU216HW,2013-01-05 01:06:00,
2013-01-04 17:11:00,32.8,22.6,30.16,ENE,68,3.1,3.4,66,0.00,,,0.00,WUHU216HW,2013-01-05 01:11:00,
2013-01-04 17:16:00,32.6,22.4,30.15,ENE,68,2.5,4.3,66,0.00,,,0.00,WUHU216HW,2013-01-05 01:16:00,
2013-01-04 17:21:00,32.4,22.3,30.15,ESE,113,1.6,4.3,66,0.00,,,0.00,WUHU216HW,2013-01-05 01:21:00,
2013-01-04 17:26:00,32.2,22.2,30.15,East,90,1.1,4.0,66,0.00,,,0.00,WUHU216HW,2013-01-05 01:26:00,
2013-01-04 17:31:00,32.0,22.3,30.15,East,90,1.6,3.1,67,0.00,,,0.00,WUHU216HW,2013-01-05 01:31:00,
2013-01-04 17:36:00,32.0,22.0,30.15,East,90,1.8,2.2,66,0.00,,,0.00,WUHU216HW,2013-01-05 01:36:00,
2013-01-04 17:41:00,31.9,21.8,30.15,SE,135,0.7,2.2,66,0.00,,,0.00,WUHU216HW,2013-01-05 01:41:00,
2013-01-04 17:46:00,31.7,21.6,30.15,SSE,158,0.2,2.0,66,0.00,,,0.00,WUHU216HW,2013-01-05 01:46:00,
2013-01-04 17:51:00,31.3,21.2,30.15,NE,45,0.9,1.3,66,0.00,,,0.00,WUHU216HW,2013-01-05 01:51:00,
2013-01-04 17:56:00,31.1,21.1,30.15,ENE,68,1.8,2.0,66,0.00,,,0.00,WUHU216HW,2013-01-05 01:56:00,
2013-01-04 18:02:00,30.8,21.1,30.15,ESE,113,0.7,2.0,67,0.00,,,0.00,WUHU216HW,2013-01-05 02:02:00,
2013-01-04 18:07:00,30.6,20.9,30.16,ENE,68,0.7,1.3,67,0.00,,,0.00,WUHU216HW,2013-01-05 02:07:00,
2013-01-04 18:12:00,30.4,20.7,30.15,NE,45,1.1,2.5,67,0.00,,,0.00,WUHU216HW,2013-01-05 02:12:00,
2013-01-04 18:17:00,30.2,20.9,30.15,ESE,113,0.0,2.5,68,0.00,,,0.00,WUHU216HW,2013-01-05 02:17:00,
2013-01-04 18:22:00,29.9,20.5,30.16,East,90,0.4,0.4,68,0.00,,,0.00,WUHU216HW,2013-01-05 02:22:00,
2013-01-04 18:27:00,29.9,20.5,30.15,ESE,113,0.0,0.4,68,0.00,,,0.00,WUHU216HW,2013-01-05 02:27:00,
2013-01-04 18:32:00,29.7,20.8,30.16,East,90,0.0,0.0,69,0.00,,,0.00,WUHU216HW,2013-01-05 02:32:00,
2013-01-04 18:37:00,29.3,20.4,30.16,NW,315,0.0,0.4,69,0.00,,,0.00,WUHU216HW,2013-01-05 02:37:00,
2013-01-04 18:42:00,29.2,20.3,30.15,NE,45,0.0,0.4,69,0.00,,,0.00,WUHU216HW,2013-01-05 02:42:00,
2013-01-04 18:47:00,29.0,20.4,30.15,NE,45,0.0,0.4,70,0.00,,,0.00,WUHU216HW,2013-01-05 02:47:00,
2013-01-04 18:52:00,28.8,20.4,30.15,NE,45,0.0,0.2,70,0.00,,,0.00,WUHU216HW,2013-01-05 02:52:00,
2013-01-04 18:57:00,28.4,20.0,30.16,NW,315,0.0,0.4,70,0.00,,,0.00,WUHU216HW,2013-01-05 02:57:00,
2013-01-04 19:02:00,28.1,19.6,30.16,NW,315,0.0,0.4,70,0.00,,,0.00,WUHU216HW,2013-01-05 03:02:00,
2013-01-04 19:07:00,27.9,19.4,30.16,NW,315,0.0,0.0,70,0.00,,,0.00,WUHU216HW,2013-01-05 03:07:00,
2013-01-04 19:13:00,27.7,19.3,30.16,WNW,293,0.0,0.4,70,0.00,,,0.00,WUHU216HW,2013-01-05 03:13:00,
2013-01-04 19:18:00,27.7,19.5,30.16,WNW,293,0.0,0.4,71,0.00,,,0.00,WUHU216HW,2013-01-05 03:18:00,
2013-01-04 19:23:00,27.7,19.5,30.15,WNW,293,0.0,0.2,71,0.00,,,0.00,WUHU216HW,2013-01-05 03:23:00,
2013-01-04 19:28:00,27.5,19.4,30.16,NW,315,0.2,0.4,71,0.00,,,0.00,WUHU216HW,2013-01-05 03:28:00,
2013-01-04 19:33:00,27.7,19.9,30.16,North,0,0.2,0.4,72,0.00,,,0.00,WUHU216HW,2013-01-05 03:33:00,
2013-01-04 19:38:00,27.7,19.9,30.16,North,0,0.2,0.4,72,0.00,,,0.00,WUHU216HW,2013-01-05 03:38:00,
2013-01-04 19:43:00,27.7,20.2,30.16,South,180,2.0,2.0,73,0.00,,,0.00,WUHU216HW,2013-01-05 03:43:00,
2013-01-04 19:48:00,28.3,21.1,30.16,South,180,0.4,2.0,74,0.00,,,0.00,WUHU216HW,2013-01-05 03:48:00,
2013-01-04 19:53:00,28.4,21.3,30.16,WNW,293,1.1,1.1,74,0.00,,,0.00,WUHU216HW,2013-01-05 03:53:00,
2013-01-04 19:58:00,28.8,22.1,30.16,North,0,1.1,1.3,76,0.00,,,0.00,WUHU216HW,2013-01-05 03:58:00,
2013-01-04 20:03:00,29.2,22.2,30.16,SE,135,0.2,1.6,75,0.00,,,0.00,WUHU216HW,2013-01-05 04:03:00,
2013-01-04 20:08:00,29.3,22.7,30.16,North,0,0.9,1.6,76,0.00,,,0.00,WUHU216HW,2013-01-05 04:08:00,
2013-01-04 20:13:00,29.3,22.4,30.16,ENE,68,1.1,1.1,75,0.00,,,0.00,WUHU216HW,2013-01-05 04:13:00,
2013-01-04 20:18:00,29.3,22.4,30.15,ENE,68,1.1,1.1,75,0.00,,,0.00,WUHU216HW,2013-01-05 04:18:00,
2013-01-04 20:23:00,29.3,22.1,30.16,East,90,0.7,1.1,74,0.00,,,0.00,WUHU216HW,2013-01-05 04:23:00,
2013-01-04 20:28:00,29.2,21.9,30.16,ENE,68,0.9,1.1,74,0.00,,,0.00,WUHU216HW,2013-01-05 04:28:00,
2013-01-04 20:33:00,29.2,21.9,30.16,NE,45,1.6,1.6,74,0.00,,,0.00,WUHU216HW,2013-01-05 04:33:00,
2013-01-04 20:38:00,29.2,21.9,30.16,ENE,68,0.7,1.6,74,0.00,,,0.00,WUHU216HW,2013-01-05 04:38:00,
2013-01-04 20:43:00,29.0,21.7,30.16,NE,45,0.7,1.1,74,0.00,,,0.00,WUHU216HW,2013-01-05 04:43:00,
2013-01-04 20:48:00,28.8,21.5,30.16,NE,45,0.4,1.1,74,0.00,,,0.00,WUHU216HW,2013-01-05 04:48:00,
2013-01-04 20:53:00,28.6,21.3,30.16,ESE,113,0.2,1.1,74,0.00,,,0.00,WUHU216HW,2013-01-05 04:53:00,
2013-01-04 20:58:00,28.4,20.9,30.16,NW,315,0.0,1.8,73,0.00,,,0.00,WUHU216HW,2013-01-05 04:58:00,
2013-01-04 21:00:00,28.4,20.9,30.16,West,270,0.2,1.8,73,0.00,,,0.00,WUHU216HW,2013-01-05 05:00:00,
2013-01-04 21:01:00,28.4,20.9,30.16,West,270,0.0,1.8,73,0.00,,,0.00,WUHU216HW,2013-01-05 05:01:00,
2013-01-04 21:06:00,28.4,20.9,30.16,SW,225,2.7,4.0,73,0.00,,,0.00,WUHU216HW,2013-01-05 05:06:00,
2013-01-04 21:11:00,28.4,20.9,30.16,WSW,248,2.0,4.0,73,0.00,,,0.00,WUHU216HW,2013-01-05 05:11:00,
2013-01-04 21:16:00,28.3,20.7,30.16,WSW,248,3.8,4.7,73,0.00,,,0.00,WUHU216HW,2013-01-05 05:16:00,
2013-01-04 21:22:00,28.3,21.1,30.16,SSW,203,2.9,4.7,74,0.00,,,0.00,WUHU216HW,2013-01-05 05:22:00,
2013-01-04 21:27:00,28.1,20.9,30.16,WSW,248,2.5,3.6,74,0.00,,,0.00,WUHU216HW,2013-01-05 05:27:00,
2013-01-04 21:32:00,28.1,20.9,30.16,West,270,0.4,3.6,74,0.00,,,0.00,WUHU216HW,2013-01-05 05:32:00,
2013-01-04 21:37:00,27.9,20.7,30.16,WNW,293,2.2,2.2,74,0.00,,,0.00,WUHU216HW,2013-01-05 05:37:00,
2013-01-04 21:42:00,27.7,20.5,30.16,WNW,293,0.4,2.5,74,0.00,,,0.00,WUHU216HW,2013-01-05 05:42:00,
2013-01-04 21:47:00,27.7,20.8,30.17,WSW,248,0.2,2.5,75,0.00,,,0.00,WUHU216HW,2013-01-05 05:47:00,
2013-01-04 21:52:00,27.5,20.6,30.17,SE,135,0.0,1.1,75,0.00,,,0.00,WUHU216HW,2013-01-05 05:52:00,
2013-01-04 21:57:00,27.4,20.2,30.16,West,270,1.1,1.8,74,0.00,,,0.00,WUHU216HW,2013-01-05 05:57:00,
2013-01-04 22:02:00,27.4,20.4,30.17,North,0,0.0,1.8,75,0.00,,,0.00,WUHU216HW,2013-01-05 06:02:00,
2013-01-04 22:07:00,27.4,20.4,30.16,WSW,248,0.7,3.4,75,0.00,,,0.00,WUHU216HW,2013-01-05 06:07:00,
2013-01-04 22:12:00,27.4,20.2,30.16,SSW,203,2.9,3.4,74,0.00,,,0.00,WUHU216HW,2013-01-05 06:12:00,
2013-01-04 22:17:00,27.5,20.6,30.16,SW,225,1.3,3.1,75,0.00,,,0.00,WUHU216HW,2013-01-05 06:17:00,
2013-01-04 22:22:00,27.5,20.6,30.16,SSW,203,1.8,1.8,75,0.00,,,0.00,WUHU216HW,2013-01-05 06:22:00,
2013-01-04 22:27:00,27.4,19.8,30.16,SSE,158,1.1,1.8,73,0.00,,,0.00,WUHU216HW,2013-01-05 06:27:00,
2013-01-04 22:32:00,27.4,19.8,30.16,WSW,248,1.1,2.9,73,0.00,,,0.00,WUHU216HW,2013-01-05 06:32:00,
2013-01-04 22:37:00,27.4,19.8,30.16,SW,225,2.9,2.9,73,0.00,,,0.00,WUHU216HW,2013-01-05 06:37:00,
2013-01-04 22:42:00,27.2,19.6,30.16,SW,225,0.4,2.9,73,0.00,,,0.00,WUHU216HW,2013-01-05 06:42:00,
2013-01-04 22:47:00,27.0,19.4,30.16,SSW,203,0.0,2.9,73,0.00,,,0.00,WUHU216HW,2013-01-05 06:47:00,
2013-01-04 22:52:00,27.0,19.4,30.16,SSW,203,0.4,2.9,73,0.00,,,0.00,WUHU216HW,2013-01-05 06:52:00,
2013-01-04 22:57:00,27.0,19.4,30.16,SE,135,1.1,2.2,73,0.00,,,0.00,WUHU216HW,2013-01-05 06:57:00,
2013-01-04 23:02:00,26.8,19.3,30.16,East,90,0.9,1.6,73,0.00,,,0.00,WUHU216HW,2013-01-05 07:02:00,
2013-01-04 23:07:00,26.6,19.1,30.16,South,180,0.4,1.6,73,0.00,,,0.00,WUHU216HW,2013-01-05 07:07:00,
2013-01-04 23:12:00,26.5,18.9,30.16,ESE,113,0.0,0.7,73,0.00,,,0.00,WUHU216HW,2013-01-05 07:12:00,
2013-01-04 23:17:00,26.3,18.7,30.16,SSE,158,0.4,0.9,73,0.00,,,0.00,WUHU216HW,2013-01-05 07:17:00,
2013-01-04 23:22:00,26.3,19.1,30.16,NNW,338,0.0,0.9,74,0.00,,,0.00,WUHU216HW,2013-01-05 07:22:00,
2013-01-04 23:27:00,26.1,18.9,30.16,SSE,158,0.0,0.9,74,0.00,,,0.00,WUHU216HW,2013-01-05 07:27:00,
2013-01-04 23:32:00,26.1,18.9,30.16,West,270,1.1,2.7,74,0.00,,,0.00,WUHU216HW,2013-01-05 07:32:00,
2013-01-04 23:37:00,25.9,18.4,30.15,SW,225,1.3,2.7,73,0.00,,,0.00,WUHU216HW,2013-01-05 07:37:00,
2013-01-04 23:42:00,25.9,18.4,30.15,WSW,248,0.9,1.8,73,0.00,,,0.00,WUHU216HW,2013-01-05 07:42:00,
2013-01-04 23:47:00,25.7,18.3,30.15,South,180,2.5,3.4,73,0.00,,,0.00,WUHU216HW,2013-01-05 07:47:00,
2013-01-04 23:53:00,25.7,18.3,30.15,WSW,248,2.2,3.4,73,0.00,,,0.00,WUHU216HW,2013-01-05 07:53:00,
2013-01-04 23:58:00,25.7,18.3,30.15,WSW,248,1.8,3.4,73,0.00,,,0.00,WUHU216HW,2013-01-05 07:58:00,